createdAt,value
2023-02-26T09:39:47.577Z,84924.72
2023-02-26T09:42:33.026Z,85105.13
2023-02-26T09:45:01.487Z,84973.84
2023-02-26T09:47:41.115Z,85116.19
2023-02-26T09:50:18.495Z,85110.53
2023-02-26T09:53:15.559Z,85117.28
2023-02-26T09:55:46.851Z,85017.50
2023-02-26T09:58:33.009Z,85039.25
2023-02-26T10:01:11.153Z,85107.72
2023-02-26T10:03:57.395Z,85124.81
2023-02-26T10:06:29.910Z,85120.56
2023-02-26T10:09:03.145Z,85130.06
2023-02-26T10:11:45.584Z,85101.09
2023-02-26T10:14:20.900Z,84887.75
2023-02-26T10:16:54.587Z,84854.81
2023-02-26T10:19:27.661Z,85061.34
2023-02-26T10:22:06.408Z,85022.13
2023-02-26T10:24:43.180Z,84886.84
2023-02-26T10:27:32.588Z,84899.63
2023-02-26T10:30:22.385Z,85121.19
2023-02-26T10:32:55.459Z,85127.97
2023-02-26T10:35:27.440Z,84887.50
2023-02-26T10:38:03.240Z,85115.34
2023-02-26T10:40:39.924Z,84871.16
2023-02-26T10:43:31.396Z,85135.31
2023-02-26T10:46:17.646Z,85137.25
2023-02-26T10:48:55.795Z,85142.09
2023-02-26T10:51:33.142Z,84897.16
2023-02-26T10:54:05.910Z,85149.00
2023-02-26T10:56:34.998Z,84927.38
2023-02-26T10:59:02.533Z,84991.91
2023-02-26T11:01:31.549Z,85061.88
2023-02-26T11:04:03.599Z,85113.59
2023-02-26T11:06:40.816Z,84966.53
2023-02-26T11:09:20.578Z,85056.41
2023-02-26T11:11:54.060Z,85172.22
2023-02-26T11:14:24.727Z,84944.47
2023-02-26T11:16:57.820Z,84921.44
2023-02-26T11:19:54.571Z,85173.28
2023-02-26T11:22:22.752Z,85175.38
2023-02-26T11:24:52.406Z,85088.81
2023-02-26T11:27:27.618Z,84914.06
2023-02-26T11:29:58.695Z,84956.38
2023-02-26T11:32:37.709Z,84988.03
2023-02-26T11:35:09.065Z,84930.78
2023-02-26T11:37:39.690Z,84919.94
2023-02-26T11:40:15.059Z,85028.91
2023-02-26T11:42:51.045Z,84969.63
2023-02-26T11:45:20.473Z,84953.28
2023-02-26T11:47:49.983Z,85048.19
2023-02-26T11:50:23.456Z,84993.91
2023-02-26T11:52:56.840Z,85122.19
2023-02-26T11:55:36.308Z,85139.69
2023-02-26T11:58:15.846Z,84880.19
2023-02-26T12:00:43.256Z,84881.13
2023-02-26T12:03:20.870Z,84885.94
2023-02-26T12:05:49.076Z,84883.59
2023-02-26T12:08:41.095Z,84935.63
2023-02-26T12:11:46.563Z,85085.91
2023-02-26T12:14:28.809Z,85095.34
2023-02-26T12:17:03.480Z,84988.28
2023-02-26T12:19:36.720Z,85083.66
2023-02-26T12:22:27.505Z,85062.97
2023-02-26T12:25:04.560Z,84883.47
2023-02-26T12:27:56.333Z,85103.84
2023-02-26T12:30:42.303Z,85090.91
2023-02-26T12:33:30.861Z,85072.78
2023-02-26T12:36:21.987Z,85072.69
2023-02-26T12:39:24.582Z,85069.34
2023-02-26T12:42:29.882Z,85039.25
2023-02-26T12:45:16.694Z,85040.75
2023-02-26T12:48:26.414Z,85016.59
2023-02-26T12:51:05.916Z,84926.81
2023-02-26T12:53:54.764Z,85007.00
2023-02-26T12:56:39.895Z,85018.03
2023-02-26T12:59:10.068Z,85029.09
2023-02-26T13:02:00.375Z,85071.91
2023-02-26T13:05:12.352Z,85034.69
2023-02-26T13:08:23.871Z,84867.09
2023-02-26T13:11:18.292Z,85044.72
2023-02-26T13:13:48.542Z,85046.75
2023-02-26T13:16:21.754Z,85052.81
2023-02-26T13:19:04.023Z,84980.91
2023-02-26T13:21:39.527Z,85020.94
2023-02-26T19:02:14.030Z,85301.66
2023-02-26T19:04:48.307Z,85268.22
2023-02-26T19:07:15.273Z,85307.00
2023-02-26T19:09:42.391Z,85273.44
2023-02-26T19:12:10.903Z,85297.94
2023-02-26T19:14:38.768Z,85284.22
2023-02-26T19:17:05.793Z,85271.00
2023-02-26T19:19:32.771Z,85252.06
2023-02-26T19:21:59.786Z,85280.72
2023-02-26T19:24:26.829Z,85269.19
2023-02-26T19:26:53.948Z,85280.13
2023-02-26T19:29:20.963Z,85265.72
2023-02-26T19:31:48.180Z,85296.66
2023-02-26T19:34:15.580Z,85251.31
2023-02-26T19:36:48.266Z,85208.53
2023-02-26T19:39:17.373Z,85233.03
2023-02-26T19:41:46.062Z,85278.69
2023-02-26T19:44:13.143Z,85283.66
2023-02-26T19:46:41.968Z,85276.75
2023-02-26T19:49:10.261Z,85241.38
2023-02-26T19:51:37.990Z,85302.25
2023-02-26T19:54:05.933Z,85283.88
2023-02-26T19:56:33.430Z,85273.66
2023-02-26T19:59:00.549Z,85253.06
2023-02-26T20:01:27.913Z,85317.41
2023-02-26T20:03:55.276Z,85307.22
2023-02-26T20:06:24.502Z,85289.00
2023-02-26T20:08:51.618Z,85238.31
2023-02-26T20:11:19.236Z,85243.69
2023-02-26T20:13:46.989Z,85325.00
2023-02-26T20:16:14.248Z,85275.72
2023-02-26T20:18:41.403Z,85269.44
2023-02-26T20:21:10.349Z,85310.50
2023-02-26T20:23:39.052Z,85287.44
2023-02-26T20:26:09.887Z,85290.75
2023-02-26T20:28:37.216Z,85290.00
2023-02-26T20:31:05.762Z,85307.78
2023-02-26T20:33:33.671Z,85324.97
2023-02-26T20:36:01.133Z,85329.78
2023-02-26T20:38:29.023Z,85318.69
2023-02-26T20:40:56.825Z,85301.53
2023-02-26T20:43:25.215Z,85309.31
2023-02-26T20:45:54.030Z,85236.44
2023-02-26T20:48:21.583Z,85283.28
2023-02-26T20:50:49.907Z,85325.09
2023-02-26T20:53:16.863Z,85308.44
2023-02-26T20:55:44.093Z,85306.69
2023-02-26T20:58:11.063Z,85307.31
2023-02-26T21:00:37.974Z,85282.91
2023-02-26T21:03:05.190Z,85317.75
2023-02-26T21:05:32.319Z,85295.94
2023-02-26T21:07:59.300Z,85318.38
2023-02-26T21:10:26.183Z,85278.22
2023-02-26T21:12:53.200Z,85315.16
2023-02-26T21:15:20.384Z,85330.97
2023-02-26T21:17:47.404Z,85284.97
2023-02-26T21:20:18.165Z,85320.50
2023-02-26T21:22:46.462Z,85295.84
2023-02-26T21:25:13.896Z,85279.44
2023-02-26T21:27:41.384Z,85339.59
2023-02-26T21:30:10.461Z,85297.25
2023-02-26T21:32:37.444Z,85267.19
2023-02-26T21:35:05.507Z,85306.97
2023-02-26T21:37:33.555Z,85314.44
2023-02-26T21:40:00.604Z,85315.03
2023-02-26T21:42:27.660Z,85331.34
2023-02-26T21:44:54.557Z,85331.50
2023-02-26T21:47:21.622Z,85369.16
2023-02-26T21:49:48.554Z,85339.94
2023-02-26T21:52:15.502Z,85274.34
2023-02-26T21:54:42.589Z,85353.47
2023-02-26T21:57:09.613Z,85309.84
2023-02-26T21:59:36.875Z,85314.59
2023-02-26T22:02:03.977Z,85315.16
2023-02-26T22:04:31.434Z,85352.13
2023-02-26T22:06:58.432Z,85340.38
2023-02-26T22:09:25.438Z,85339.47
2023-02-26T22:11:52.379Z,85344.97
2023-02-26T22:14:19.406Z,85351.03
2023-02-26T22:16:46.425Z,85312.00
2023-02-26T22:19:13.463Z,85321.56
2023-02-26T22:21:40.435Z,85329.09
2023-02-26T22:24:07.837Z,85336.69
2023-02-26T22:26:35.632Z,85301.25
2023-02-26T22:29:03.902Z,85329.25
2023-02-26T22:31:32.329Z,85360.16
2023-02-26T22:33:59.999Z,85345.78
2023-02-26T22:36:27.815Z,85338.47
2023-02-26T22:38:54.763Z,85371.94
2023-02-26T22:41:22.139Z,85347.25
2023-02-26T22:43:49.488Z,85360.28
2023-02-26T22:46:17.602Z,85376.75
2023-02-26T22:48:44.925Z,85398.03
2023-02-26T22:51:11.918Z,85335.69
2023-02-26T22:53:38.937Z,85356.16
2023-02-26T22:56:05.939Z,85316.31
2023-02-26T22:58:32.866Z,85380.88
2023-02-26T23:01:01.943Z,85351.53
2023-02-26T23:03:29.829Z,85348.28
2023-02-26T23:05:57.728Z,85385.16
2023-02-26T23:08:25.985Z,85364.50
2023-02-26T23:10:58.039Z,85350.72
2023-02-26T23:13:26.605Z,85342.09
2023-02-26T23:15:55.065Z,85237.47
2023-02-26T23:18:22.150Z,85266.25
2023-02-26T23:20:50.657Z,85365.50
2023-02-26T23:23:18.339Z,85358.53
2023-02-26T23:25:45.756Z,85383.88
2023-02-26T23:28:12.728Z,85369.91
2023-02-26T23:30:40.384Z,85363.53
2023-02-26T23:33:08.213Z,85334.06
2023-02-26T23:35:35.592Z,85333.28
2023-02-26T23:38:03.398Z,85356.56
2023-02-26T23:40:31.389Z,85359.88
2023-02-26T23:42:58.525Z,85363.88
2023-02-26T23:45:25.782Z,85348.88
2023-02-26T23:47:52.724Z,85349.75
2023-02-26T23:50:20.135Z,85351.06
2023-02-26T23:52:47.130Z,85346.34
2023-02-26T23:55:14.197Z,85363.63
2023-02-26T23:57:41.228Z,85288.25
